createdAt,value
2023-05-10T00:00:36.445Z,1.90
2023-05-10T00:03:12.409Z,1.73
2023-05-10T00:05:39.318Z,1.65
2023-05-10T00:08:06.545Z,1.30
2023-05-10T00:10:33.357Z,2.15
2023-05-10T00:13:00.570Z,1.80
2023-05-10T00:15:27.441Z,1.92
2023-05-10T00:17:54.512Z,1.75
2023-05-10T00:20:21.449Z,1.98
2023-05-10T00:22:48.486Z,1.88
2023-05-10T00:25:15.778Z,2.00
2023-05-10T00:27:42.852Z,1.92
2023-05-10T00:30:12.770Z,2.17
2023-05-10T00:32:41.249Z,2.08
2023-05-10T00:35:08.630Z,1.73
2023-05-10T00:37:38.680Z,2.22
2023-05-10T00:40:06.862Z,2.13
2023-05-10T00:42:34.449Z,2.22
2023-05-10T00:45:02.404Z,2.28
2023-05-10T00:47:29.949Z,2.00
2023-05-10T00:49:57.127Z,2.63
2023-05-10T00:52:27.281Z,2.60
2023-05-10T00:54:54.583Z,2.75
2023-05-10T00:57:22.724Z,2.30
2023-05-10T00:59:52.557Z,2.08
2023-05-10T01:02:20.688Z,2.30
2023-05-10T01:04:48.408Z,2.28
2023-05-10T01:07:15.939Z,2.75
2023-05-10T01:09:46.253Z,2.08
2023-05-10T01:12:14.137Z,2.63
2023-05-10T01:14:41.536Z,2.53
2023-05-10T01:17:10.367Z,2.00
2023-05-10T01:19:38.661Z,2.33
2023-05-10T01:22:33.586Z,2.70
2023-05-10T01:25:22.005Z,2.78
2023-05-10T01:28:07.499Z,2.65
2023-05-10T01:31:11.868Z,2.65
2023-05-10T01:33:52.673Z,2.90
2023-05-10T01:36:33.841Z,2.83
2023-05-10T01:39:24.060Z,2.60
2023-05-10T01:41:58.462Z,2.63
2023-05-10T01:45:01.211Z,2.53
2023-05-10T01:47:36.632Z,2.85
2023-05-10T01:50:22.589Z,3.10
2023-05-10T01:52:55.732Z,2.40
2023-05-10T01:55:28.454Z,2.75
2023-05-10T01:58:06.688Z,2.92
2023-05-10T02:00:35.647Z,2.92
2023-05-10T02:03:07.802Z,2.75
2023-05-10T02:05:39.851Z,2.50
2023-05-10T02:08:08.894Z,2.42
2023-05-10T02:10:36.321Z,2.60
2023-05-10T02:13:04.520Z,3.00
2023-05-10T02:15:32.591Z,2.92
2023-05-10T02:18:01.121Z,2.65
2023-05-10T02:20:28.382Z,2.80
2023-05-10T02:22:57.077Z,2.45
2023-05-10T02:25:26.558Z,2.70
2023-05-10T02:27:57.797Z,3.03
2023-05-10T02:30:27.190Z,2.53
2023-05-10T02:32:54.478Z,2.55
2023-05-10T02:35:24.879Z,2.60
2023-05-10T02:37:55.421Z,2.70
2023-05-10T02:40:26.787Z,2.33
2023-05-10T02:42:58.339Z,2.70
2023-05-10T02:45:30.075Z,2.55
2023-05-10T02:48:01.042Z,2.40
2023-05-10T02:50:30.030Z,2.53
2023-05-10T02:53:02.878Z,2.63
2023-05-10T02:55:36.539Z,2.40
2023-05-10T02:58:04.200Z,2.50
2023-05-10T03:00:32.693Z,3.53
2023-05-10T03:03:02.683Z,2.63
2023-05-10T03:05:32.812Z,2.90
2023-05-10T03:08:01.716Z,3.53
2023-05-10T03:10:31.811Z,2.90
2023-05-10T03:13:36.980Z,2.78
2023-05-10T03:16:16.831Z,2.67
2023-05-10T03:18:55.686Z,2.63
2023-05-10T03:21:27.110Z,2.72
2023-05-10T03:24:08.616Z,3.05
2023-05-10T03:26:37.753Z,3.00
2023-05-10T03:29:06.497Z,2.25
2023-05-10T03:31:34.205Z,2.28
2023-05-10T03:34:01.162Z,3.13
2023-05-10T03:36:28.233Z,2.95
2023-05-10T03:38:55.021Z,3.03
2023-05-10T03:41:22.384Z,2.45
2023-05-10T03:43:49.241Z,2.80
2023-05-10T03:46:16.395Z,2.95
2023-05-10T03:48:45.768Z,2.95
2023-05-10T03:51:13.518Z,2.85
2023-05-10T03:53:40.303Z,2.75
2023-05-10T03:56:07.407Z,2.17
2023-05-10T03:58:34.160Z,2.70
2023-05-10T04:01:03.793Z,2.75
2023-05-10T04:03:32.710Z,2.65
2023-05-10T04:06:03.072Z,2.47
2023-05-10T04:08:30.237Z,2.78
2023-05-10T04:11:11.625Z,2.72
2023-05-10T04:13:39.217Z,3.20
2023-05-10T04:16:06.650Z,2.55
2023-05-10T04:18:33.783Z,2.53
2023-05-10T04:21:00.934Z,3.40
2023-05-10T04:23:28.790Z,2.60
2023-05-10T04:26:05.199Z,3.30
2023-05-10T04:28:34.753Z,3.35
2023-05-10T04:31:06.548Z,3.00
2023-05-10T04:33:37.279Z,3.40
2023-05-10T04:36:04.772Z,3.33
2023-05-10T04:38:31.794Z,3.30
2023-05-10T04:41:09.823Z,2.90
2023-05-10T04:43:37.957Z,3.53
2023-05-10T04:46:06.124Z,2.88
2023-05-10T04:48:33.152Z,3.65
2023-05-10T04:51:00.724Z,3.35
2023-05-10T04:53:27.777Z,3.60
2023-05-10T04:55:55.891Z,4.03
2023-05-10T04:58:22.669Z,3.38
2023-05-10T05:00:49.797Z,3.22
2023-05-10T05:03:16.685Z,3.60
2023-05-10T05:05:45.133Z,3.40
2023-05-10T05:08:12.036Z,3.40
2023-05-10T05:10:39.565Z,3.42
2023-05-10T05:13:06.674Z,3.92
2023-05-10T05:15:34.269Z,3.42
2023-05-10T05:18:01.204Z,3.88
2023-05-10T05:20:28.460Z,3.55
2023-05-10T05:22:55.765Z,3.55
2023-05-10T05:25:25.530Z,3.58
2023-05-10T05:27:52.350Z,3.42
2023-05-10T05:30:22.224Z,3.60
2023-05-10T05:32:50.465Z,3.50
2023-05-10T05:35:17.887Z,3.60
2023-05-10T05:37:48.737Z,3.72
2023-05-10T05:40:16.229Z,3.38
2023-05-10T05:42:43.078Z,4.00
2023-05-10T05:45:13.954Z,3.50
2023-05-10T05:47:41.165Z,3.38
2023-05-10T05:50:10.947Z,3.78
2023-05-10T05:52:41.085Z,3.10
2023-05-10T05:55:08.220Z,3.45
2023-05-10T05:57:35.305Z,2.95
2023-05-10T06:00:05.066Z,2.90
2023-05-10T06:02:32.177Z,3.22
2023-05-10T06:04:59.528Z,3.38
2023-05-10T06:07:29.617Z,3.70
2023-05-10T06:09:59.460Z,3.53
2023-05-10T06:12:26.566Z,3.92
2023-05-10T06:14:54.412Z,3.58
2023-05-10T06:17:22.716Z,3.67
2023-05-10T06:19:52.294Z,3.50
2023-05-10T06:22:19.618Z,3.75
2023-05-10T06:24:46.447Z,3.45
2023-05-10T06:27:14.862Z,3.80
2023-05-10T06:29:42.779Z,3.40
2023-05-10T06:32:10.108Z,4.10
2023-05-10T06:34:37.395Z,4.10
2023-05-10T06:37:04.574Z,3.67
2023-05-10T06:39:31.312Z,4.13
2023-05-10T06:41:58.364Z,2.60
2023-05-10T06:44:25.193Z,3.92
2023-05-10T06:46:53.598Z,3.33
2023-05-10T06:49:20.419Z,3.88
2023-05-10T06:51:47.849Z,3.30
2023-05-10T06:54:14.718Z,3.53
2023-05-10T06:56:44.605Z,3.72
2023-05-10T06:59:11.603Z,3.78
2023-05-10T07:01:38.742Z,3.13
2023-05-10T07:04:06.030Z,3.30
2023-05-10T07:06:37.083Z,4.20
2023-05-10T07:09:04.101Z,3.47
2023-05-10T07:11:34.038Z,3.83
2023-05-10T07:14:01.024Z,3.80
2023-05-10T07:16:28.113Z,3.90
2023-05-10T07:18:55.457Z,3.30
2023-05-10T07:21:24.990Z,3.97
2023-05-10T07:23:52.576Z,4.70
2023-05-10T07:26:22.384Z,5.15
2023-05-10T07:28:49.173Z,3.42
2023-05-10T07:31:16.336Z,3.80
2023-05-10T07:33:43.143Z,3.50
2023-05-10T07:36:10.262Z,3.58
2023-05-10T07:38:40.805Z,3.67
2023-05-10T07:41:08.068Z,5.30
2023-05-10T07:43:34.903Z,3.50
2023-05-10T07:46:05.217Z,3.38
2023-05-10T07:48:33.533Z,3.50
2023-05-10T07:51:00.644Z,4.03
2023-05-10T07:53:28.352Z,3.80
2023-05-10T07:55:59.225Z,2.95
2023-05-10T07:58:28.730Z,3.42
2023-05-10T08:00:55.880Z,3.00
2023-05-10T08:03:22.758Z,3.05
2023-05-10T08:05:50.190Z,3.58
2023-05-10T08:08:21.025Z,3.08
2023-05-10T08:10:50.288Z,2.88
2023-05-10T08:13:19.806Z,2.63
2023-05-10T08:15:47.289Z,2.92
2023-05-10T08:18:17.183Z,2.47
2023-05-10T08:20:44.319Z,2.33
2023-05-10T08:23:11.128Z,2.50
2023-05-10T08:25:38.208Z,2.90
2023-05-10T08:28:05.082Z,2.67
2023-05-10T08:30:32.247Z,2.95
2023-05-10T08:32:59.285Z,2.67
2023-05-10T08:35:26.461Z,3.10
2023-05-10T08:37:53.597Z,2.83
2023-05-10T08:40:21.641Z,2.70
2023-05-10T08:42:58.756Z,3.65
2023-05-10T08:45:33.534Z,3.83
2023-05-10T08:48:06.046Z,2.50
2023-05-10T08:50:36.629Z,2.67
2023-05-10T08:53:07.021Z,2.90
2023-05-10T08:55:34.855Z,2.92
2023-05-10T08:58:01.711Z,3.03
2023-05-10T09:00:29.845Z,2.53
2023-05-10T09:02:58.056Z,2.90
2023-05-10T09:05:28.242Z,2.58
2023-05-10T09:07:55.076Z,2.55
2023-05-10T09:10:22.752Z,2.10
2023-05-10T09:12:50.360Z,2.40
2023-05-10T09:15:22.626Z,2.67
2023-05-10T09:17:50.867Z,3.10
2023-05-10T09:20:21.616Z,2.83
2023-05-10T09:22:48.395Z,2.75
2023-05-10T09:25:17.231Z,2.95
2023-05-10T09:27:50.496Z,3.08
2023-05-10T09:30:31.558Z,2.70
2023-05-10T09:33:00.294Z,2.63
2023-05-10T09:35:33.855Z,2.97
2023-05-10T09:38:03.752Z,2.92
2023-05-10T09:40:31.766Z,2.65
2023-05-10T09:43:07.882Z,3.10
2023-05-10T09:45:38.593Z,2.17
2023-05-10T09:48:06.497Z,2.22
2023-05-10T09:50:36.344Z,2.47
2023-05-10T09:53:04.883Z,2.10
2023-05-10T09:55:45.785Z,2.10
2023-05-10T09:58:14.468Z,2.75
2023-05-10T10:00:44.374Z,2.33
2023-05-10T10:03:19.717Z,2.47
2023-05-10T10:05:49.057Z,2.80
2023-05-10T10:08:18.379Z,2.58
2023-05-10T10:10:47.192Z,2.30
2023-05-10T10:13:15.279Z,2.20
2023-05-10T10:15:44.510Z,2.40
2023-05-10T10:18:15.725Z,2.55
2023-05-10T10:20:43.156Z,2.15
2023-05-10T10:23:10.188Z,2.20
2023-05-10T10:25:39.929Z,2.10
2023-05-10T10:28:33.566Z,1.90
2023-05-10T10:31:14.731Z,1.77
2023-05-10T10:33:58.028Z,2.08
2023-05-10T10:36:28.038Z,2.00
2023-05-10T10:38:58.940Z,2.08
2023-05-10T10:41:31.824Z,1.70
2023-05-10T10:44:23.927Z,1.77
2023-05-10T10:47:14.081Z,1.45
2023-05-10T10:49:40.868Z,2.03
2023-05-10T10:52:34.576Z,2.22
2023-05-10T10:55:23.525Z,1.73
2023-05-10T10:57:53.440Z,1.95
2023-05-10T11:00:23.594Z,2.00
2023-05-10T11:02:59.181Z,1.77
2023-05-10T11:05:34.526Z,1.70
2023-05-10T11:08:18.012Z,1.52
2023-05-10T11:11:01.585Z,1.65
2023-05-10T11:13:40.941Z,1.38
2023-05-10T11:16:16.960Z,1.40
2023-05-10T11:19:04.711Z,1.50
2023-05-10T11:21:44.924Z,1.40
2023-05-10T11:24:17.571Z,1.30
2023-05-10T11:26:44.537Z,1.60
2023-05-10T11:29:14.009Z,1.60
2023-05-10T11:31:46.157Z,1.42
2023-05-10T11:34:23.600Z,1.50
2023-05-10T11:36:55.523Z,1.52
2023-05-10T11:39:30.810Z,1.10
2023-05-10T11:41:58.646Z,1.10
2023-05-10T11:44:32.445Z,1.40
2023-05-10T11:47:01.252Z,1.30
2023-05-10T11:49:31.554Z,1.38
2023-05-10T11:52:07.153Z,1.85
2023-05-10T11:54:35.986Z,1.60
2023-05-10T11:57:03.270Z,1.60
2023-05-10T11:59:30.929Z,1.80
2023-05-10T12:01:59.558Z,2.03
2023-05-10T12:04:27.721Z,1.63
2023-05-10T12:06:54.663Z,1.42
2023-05-10T12:09:35.418Z,1.73
2023-05-10T12:12:07.235Z,1.38
2023-05-10T12:14:40.931Z,1.27
2023-05-10T12:17:12.372Z,1.35
2023-05-10T12:19:40.223Z,1.33
2023-05-10T12:22:07.553Z,1.17
2023-05-10T12:24:39.280Z,1.88
2023-05-10T12:27:09.709Z,1.35
2023-05-10T12:29:37.652Z,1.40
2023-05-10T12:32:04.623Z,1.35
2023-05-10T12:34:37.075Z,1.75
2023-05-10T12:37:07.731Z,1.77
2023-05-10T12:39:43.091Z,1.83
2023-05-10T12:42:10.859Z,1.35
2023-05-10T12:44:37.902Z,1.17
2023-05-10T12:47:06.091Z,1.70
2023-05-10T12:49:33.202Z,1.52
2023-05-10T12:52:01.041Z,2.35
2023-05-10T12:54:28.879Z,1.10
2023-05-10T12:56:55.958Z,1.90
2023-05-10T12:59:23.853Z,1.30
2023-05-10T13:01:50.747Z,1.10
2023-05-10T13:04:17.848Z,1.45
2023-05-10T13:06:45.109Z,1.38
2023-05-10T13:09:15.035Z,1.60
2023-05-10T13:11:42.055Z,1.30
2023-05-10T13:14:09.494Z,1.73
2023-05-10T13:16:36.756Z,1.25
2023-05-10T13:19:06.969Z,2.00
2023-05-10T13:21:33.796Z,0.95
2023-05-10T13:24:02.415Z,0.90
2023-05-10T13:26:29.584Z,1.20
2023-05-10T13:28:56.778Z,0.88
2023-05-10T13:31:23.635Z,0.90
2023-05-10T13:33:54.023Z,1.50
2023-05-10T13:36:20.979Z,1.30
2023-05-10T13:38:48.206Z,1.33
2023-05-10T13:41:18.078Z,1.20
2023-05-10T13:43:45.676Z,0.88
2023-05-10T13:46:12.514Z,1.02
2023-05-10T13:48:39.587Z,1.23
2023-05-10T13:51:06.401Z,1.20
2023-05-10T13:53:33.453Z,1.50
2023-05-10T13:56:00.252Z,0.98
2023-05-10T13:58:27.671Z,1.02
2023-05-10T14:00:54.625Z,0.98
2023-05-10T14:03:21.860Z,1.10
2023-05-10T14:05:48.705Z,1.30
2023-05-10T14:08:15.842Z,0.88
2023-05-10T14:10:42.904Z,1.00
2023-05-10T14:13:13.304Z,1.10
2023-05-10T14:15:43.303Z,1.00
2023-05-10T14:18:10.393Z,0.98
2023-05-10T14:20:37.571Z,1.20
2023-05-10T14:23:04.663Z,0.82
2023-05-10T14:25:32.032Z,1.05
2023-05-10T14:28:00.268Z,0.93
2023-05-10T14:30:27.116Z,0.77
2023-05-10T14:32:55.074Z,0.80
2023-05-10T14:35:22.510Z,0.93
2023-05-10T14:37:49.707Z,0.63
2023-05-10T14:40:18.206Z,0.75
2023-05-10T14:42:45.287Z,0.52
2023-05-10T14:45:13.062Z,0.65
2023-05-10T14:47:40.181Z,1.08
2023-05-10T14:50:09.027Z,1.00
2023-05-10T14:52:36.577Z,0.98
2023-05-10T14:55:03.602Z,1.33
2023-05-10T14:57:30.803Z,0.90
2023-05-10T15:00:00.462Z,0.90
2023-05-10T15:02:28.166Z,1.27
2023-05-10T15:04:55.482Z,1.05
2023-05-10T15:07:23.038Z,0.90
2023-05-10T15:09:51.390Z,0.93
2023-05-10T15:12:19.363Z,0.68
2023-05-10T15:14:46.154Z,0.98
2023-05-10T15:17:13.275Z,0.60
2023-05-10T15:19:44.337Z,1.00
2023-05-10T15:22:12.806Z,1.00
2023-05-10T15:24:39.572Z,0.60
2023-05-10T15:27:06.933Z,0.60
2023-05-10T15:29:35.223Z,0.80
2023-05-10T15:32:03.722Z,1.10
2023-05-10T15:34:32.245Z,0.70
2023-05-10T15:37:00.970Z,0.80
2023-05-10T15:39:27.725Z,1.23
2023-05-10T15:42:02.320Z,1.00
2023-05-10T15:44:31.663Z,0.95
2023-05-10T15:46:58.834Z,0.90
2023-05-10T15:49:28.585Z,1.05
2023-05-10T15:51:55.673Z,1.25
2023-05-10T15:54:22.540Z,1.30
2023-05-10T15:56:49.564Z,0.82
2023-05-10T15:59:16.337Z,0.90
2023-05-10T16:01:43.609Z,0.90
2023-05-10T16:04:10.447Z,1.42
2023-05-10T16:06:38.085Z,0.98
2023-05-10T16:09:04.877Z,1.13
2023-05-10T16:11:33.162Z,1.92
2023-05-10T16:13:59.958Z,1.00
2023-05-10T16:16:27.156Z,1.00
2023-05-10T16:18:57.971Z,1.10
2023-05-10T16:21:29.033Z,1.25
2023-05-10T16:23:58.284Z,1.10
2023-05-10T16:26:25.692Z,1.08
2023-05-10T16:28:52.456Z,1.00
2023-05-10T16:31:20.707Z,1.00
2023-05-10T16:33:47.605Z,1.20
2023-05-10T16:36:14.731Z,1.27
2023-05-10T16:38:41.941Z,1.27
2023-05-10T16:41:09.027Z,1.50
2023-05-10T16:43:36.753Z,2.05
2023-05-10T16:46:10.219Z,1.35
2023-05-10T16:48:38.446Z,1.60
2023-05-10T16:51:05.533Z,2.13
2023-05-10T16:53:32.595Z,1.20
2023-05-10T16:55:59.769Z,1.40
2023-05-10T16:58:26.912Z,1.88
2023-05-10T17:00:54.161Z,1.17
2023-05-10T17:03:21.163Z,1.42
2023-05-10T17:05:48.630Z,1.55
2023-05-10T17:08:16.100Z,1.30
2023-05-10T17:10:45.419Z,1.23
2023-05-10T17:13:12.394Z,1.55
2023-05-10T17:15:39.987Z,1.27
2023-05-10T17:18:07.628Z,1.40
2023-05-10T17:20:35.036Z,1.45
2023-05-10T17:23:03.702Z,1.42
2023-05-10T17:25:30.830Z,1.50
2023-05-10T17:27:57.595Z,1.40
2023-05-10T17:30:27.520Z,1.30
2023-05-10T17:32:54.639Z,1.40
2023-05-10T17:35:21.818Z,1.67
2023-05-10T17:37:48.767Z,1.67
2023-05-10T17:40:17.290Z,1.50
2023-05-10T17:42:44.394Z,1.33
2023-05-10T17:45:12.794Z,1.60
2023-05-10T17:47:39.642Z,1.77
2023-05-10T17:50:10.251Z,1.70
2023-05-10T17:52:40.354Z,1.75
2023-05-10T17:55:08.635Z,1.88
2023-05-10T17:57:38.798Z,1.80
2023-05-10T18:00:09.207Z,2.85
2023-05-10T18:02:37.143Z,2.50
2023-05-10T18:05:05.060Z,1.77
2023-05-10T18:07:36.091Z,1.50
2023-05-10T18:10:03.285Z,1.85
2023-05-10T18:12:30.074Z,2.03
2023-05-10T18:14:57.732Z,1.75
2023-05-10T18:17:24.846Z,1.58
2023-05-10T18:19:52.320Z,1.48
2023-05-10T18:22:19.257Z,1.40
2023-05-10T18:24:47.150Z,1.63
2023-05-10T18:27:14.028Z,1.88
2023-05-10T18:29:41.278Z,1.38
2023-05-10T18:32:08.113Z,1.83
2023-05-10T18:34:35.246Z,1.45
2023-05-10T18:37:07.325Z,1.50
2023-05-10T18:39:34.784Z,1.60
2023-05-10T18:42:01.848Z,1.95
2023-05-10T18:44:29.265Z,1.38
2023-05-10T18:46:56.630Z,1.45
2023-05-10T18:49:23.934Z,2.65
2023-05-10T18:51:51.063Z,1.80
2023-05-10T18:54:18.303Z,1.58
2023-05-10T18:56:45.411Z,2.08
2023-05-10T18:59:13.013Z,1.65
2023-05-10T19:01:42.841Z,1.60
2023-05-10T19:04:09.987Z,1.33
2023-05-10T19:06:37.062Z,1.38
2023-05-10T19:09:04.267Z,1.55
2023-05-10T19:11:34.123Z,1.33
2023-05-10T19:14:01.985Z,1.60
2023-05-10T19:16:30.263Z,2.25
2023-05-10T19:18:57.627Z,1.63
2023-05-10T19:21:24.453Z,1.67
2023-05-10T19:23:52.178Z,1.67
2023-05-10T19:26:19.239Z,1.50
2023-05-10T19:28:46.332Z,1.60
2023-05-10T19:31:13.453Z,1.65
2023-05-10T19:33:40.855Z,1.30
2023-05-10T19:36:07.693Z,1.50
2023-05-10T19:38:35.162Z,1.30
2023-05-10T19:41:02.013Z,1.67
2023-05-10T19:43:33.301Z,2.00
2023-05-10T19:46:04.202Z,1.63
2023-05-10T19:48:32.178Z,1.70
2023-05-10T19:51:03.657Z,1.60
2023-05-10T19:53:31.680Z,1.70
2023-05-10T19:56:06.420Z,1.55
2023-05-10T19:58:34.032Z,1.98
2023-05-10T20:01:01.237Z,1.30
2023-05-10T20:03:29.107Z,1.30
2023-05-10T20:05:55.991Z,2.47
2023-05-10T20:08:23.052Z,1.73
2023-05-10T20:10:49.856Z,1.98
2023-05-10T20:13:16.969Z,1.13
2023-05-10T20:15:44.335Z,1.48
2023-05-10T20:18:11.447Z,1.50
2023-05-10T20:20:39.130Z,1.40
2023-05-10T20:23:06.261Z,1.33
2023-05-10T20:25:33.072Z,1.10
2023-05-10T20:28:00.262Z,1.35
2023-05-10T20:30:27.106Z,1.58
2023-05-10T20:32:54.326Z,1.40
2023-05-10T20:35:21.310Z,1.20
2023-05-10T20:37:48.483Z,1.40
2023-05-10T20:40:15.804Z,1.30
2023-05-10T20:42:43.007Z,1.30
2023-05-10T20:45:10.348Z,1.35
2023-05-10T20:47:37.624Z,1.40
2023-05-10T20:50:04.948Z,1.50
2023-05-10T20:52:32.035Z,1.30
2023-05-10T20:54:58.787Z,2.85
2023-05-10T20:57:26.220Z,1.23
2023-05-10T20:59:53.169Z,1.60
2023-05-10T21:02:20.447Z,1.20
2023-05-10T21:04:47.378Z,1.38
2023-05-10T21:07:14.528Z,1.60
2023-05-10T21:09:41.339Z,1.15
2023-05-10T21:12:10.366Z,1.35
2023-05-10T21:14:37.189Z,1.42
2023-05-10T21:17:04.410Z,1.55
2023-05-10T21:19:31.199Z,1.70
2023-05-10T21:21:59.761Z,1.73
2023-05-10T21:24:26.921Z,1.83
2023-05-10T21:26:56.240Z,1.75
2023-05-10T21:29:23.190Z,1.48
2023-05-10T21:31:50.601Z,1.45
2023-05-10T21:34:18.004Z,1.33
2023-05-10T21:36:45.060Z,1.90
2023-05-10T21:39:11.989Z,1.38
2023-05-10T21:41:39.076Z,1.27
2023-05-10T21:44:06.236Z,2.00
2023-05-10T21:46:33.319Z,1.58
2023-05-10T21:49:00.158Z,1.13
2023-05-10T21:51:29.266Z,1.65
2023-05-10T21:53:56.274Z,1.70
2023-05-10T21:56:23.481Z,1.60
2023-05-10T21:58:50.420Z,1.52
2023-05-10T22:01:18.071Z,1.73
2023-05-10T22:03:44.919Z,1.55
2023-05-10T22:06:12.243Z,1.50
2023-05-10T22:08:39.023Z,2.00
2023-05-10T22:11:06.325Z,1.38
2023-05-10T22:13:33.090Z,1.27
2023-05-10T22:16:00.641Z,1.33
2023-05-10T22:18:27.528Z,1.35
2023-05-10T22:20:54.693Z,1.58
2023-05-10T22:23:21.483Z,1.40
2023-05-10T22:25:48.554Z,1.50
2023-05-10T22:28:15.312Z,1.30
2023-05-10T22:30:43.365Z,1.67
2023-05-10T22:33:10.198Z,1.40
2023-05-10T22:35:37.257Z,1.27
2023-05-10T22:38:04.209Z,1.50
2023-05-10T22:40:32.279Z,1.50
2023-05-10T22:42:59.140Z,1.65
2023-05-10T22:45:26.206Z,1.77
2023-05-10T22:47:53.146Z,1.33
2023-05-10T22:50:21.132Z,1.70
2023-05-10T22:52:48.064Z,1.60
2023-05-10T22:55:15.189Z,1.65
2023-05-10T22:57:42.004Z,1.13
2023-05-10T23:00:09.513Z,1.58
2023-05-10T23:02:36.403Z,1.25
2023-05-10T23:05:05.453Z,1.38
2023-05-10T23:07:32.747Z,1.70
2023-05-10T23:09:59.888Z,1.75
2023-05-10T23:12:26.707Z,1.25
2023-05-10T23:14:54.802Z,1.65
2023-05-10T23:17:21.603Z,1.52
2023-05-10T23:19:48.656Z,1.60
2023-05-10T23:22:15.447Z,1.63
2023-05-10T23:24:42.537Z,1.33
2023-05-10T23:27:11.385Z,1.35
2023-05-10T23:29:38.469Z,1.85
2023-05-10T23:32:05.522Z,1.88
2023-05-10T23:34:32.709Z,1.75
2023-05-10T23:36:59.635Z,1.58
2023-05-10T23:39:26.762Z,1.48
2023-05-10T23:41:53.647Z,1.83
2023-05-10T23:44:20.685Z,1.40
2023-05-10T23:46:47.444Z,1.23
2023-05-10T23:49:14.511Z,1.95
2023-05-10T23:51:41.391Z,2.38
2023-05-10T23:54:08.731Z,1.70
2023-05-10T23:56:35.574Z,2.30
2023-05-10T23:59:02.659Z,1.73
